sensor_id;sensor_type;location;lat;lon;timestamp;P1;durP1;ratioP1;P2;durP2;ratioP2
38023;SDS011;23834;48.080;11.682;2023-04-06T00:00:02;5.10;;;4.77;;
38023;SDS011;23834;48.080;11.682;2023-04-06T00:02:29;5.00;;;4.57;;
38023;SDS011;23834;48.080;11.682;2023-04-06T00:04:54;4.60;;;4.20;;
38023;SDS011;23834;48.080;11.682;2023-04-06T00:07:20;4.30;;;3.90;;
38023;SDS011;23834;48.080;11.682;2023-04-06T00:09:45;4.40;;;4.10;;
38023;SDS011;23834;48.080;11.682;2023-04-06T00:12:10;5.10;;;4.50;;
38023;SDS011;23834;48.080;11.682;2023-04-06T00:14:35;4.73;;;4.33;;
38023;SDS011;23834;48.080;11.682;2023-04-06T00:17:00;5.10;;;4.70;;
38023;SDS011;23834;48.080;11.682;2023-04-06T00:19:26;4.73;;;4.33;;
38023;SDS011;23834;48.080;11.682;2023-04-06T00:21:51;4.77;;;4.37;;
38023;SDS011;23834;48.080;11.682;2023-04-06T00:24:16;4.30;;;3.93;;
38023;SDS011;23834;48.080;11.682;2023-04-06T00:26:42;5.03;;;4.57;;
38023;SDS011;23834;48.080;11.682;2023-04-06T00:29:07;4.43;;;4.10;;
38023;SDS011;23834;48.080;11.682;2023-04-06T00:31:32;5.97;;;4.50;;
38023;SDS011;23834;48.080;11.682;2023-04-06T00:33:57;5.00;;;4.50;;
38023;SDS011;23834;48.080;11.682;2023-04-06T00:36:23;4.00;;;3.60;;
38023;SDS011;23834;48.080;11.682;2023-04-06T00:38:48;5.13;;;4.73;;
38023;SDS011;23834;48.080;11.682;2023-04-06T00:41:13;5.60;;;5.10;;
38023;SDS011;23834;48.080;11.682;2023-04-06T00:43:38;4.53;;;3.73;;
38023;SDS011;23834;48.080;11.682;2023-04-06T00:46:03;5.27;;;4.77;;
38023;SDS011;23834;48.080;11.682;2023-04-06T00:48:29;5.13;;;4.43;;
38023;SDS011;23834;48.080;11.682;2023-04-06T00:50:55;4.57;;;4.17;;
38023;SDS011;23834;48.080;11.682;2023-04-06T00:53:21;4.73;;;4.33;;
38023;SDS011;23834;48.080;11.682;2023-04-06T00:55:46;4.07;;;3.67;;
38023;SDS011;23834;48.080;11.682;2023-04-06T00:58:11;4.33;;;3.93;;
38023;SDS011;23834;48.080;11.682;2023-04-06T01:00:37;4.73;;;4.33;;
38023;SDS011;23834;48.080;11.682;2023-04-06T01:03:02;4.77;;;4.23;;
38023;SDS011;23834;48.080;11.682;2023-04-06T01:05:28;5.93;;;4.67;;
38023;SDS011;23834;48.080;11.682;2023-04-06T01:07:53;4.00;;;3.60;;
38023;SDS011;23834;48.080;11.682;2023-04-06T01:10:22;5.37;;;4.87;;
38023;SDS011;23834;48.080;11.682;2023-04-06T01:12:48;4.83;;;4.43;;
38023;SDS011;23834;48.080;11.682;2023-04-06T01:15:13;4.67;;;4.27;;
38023;SDS011;23834;48.080;11.682;2023-04-06T01:17:38;4.57;;;4.17;;
38023;SDS011;23834;48.080;11.682;2023-04-06T01:20:03;4.57;;;4.17;;
38023;SDS011;23834;48.080;11.682;2023-04-06T01:22:29;5.00;;;4.63;;
38023;SDS011;23834;48.080;11.682;2023-04-06T01:24:54;4.83;;;3.63;;
38023;SDS011;23834;48.080;11.682;2023-04-06T01:27:19;4.63;;;4.23;;
38023;SDS011;23834;48.080;11.682;2023-04-06T01:29:45;4.73;;;4.33;;
38023;SDS011;23834;48.080;11.682;2023-04-06T01:32:10;4.40;;;4.00;;
38023;SDS011;23834;48.080;11.682;2023-04-06T01:34:35;4.63;;;4.20;;
38023;SDS011;23834;48.080;11.682;2023-04-06T01:37:01;4.30;;;3.90;;
38023;SDS011;23834;48.080;11.682;2023-04-06T01:39:26;4.40;;;4.00;;
38023;SDS011;23834;48.080;11.682;2023-04-06T01:41:51;4.00;;;3.70;;
38023;SDS011;23834;48.080;11.682;2023-04-06T01:44:17;4.83;;;4.33;;
38023;SDS011;23834;48.080;11.682;2023-04-06T01:46:43;4.30;;;3.90;;
38023;SDS011;23834;48.080;11.682;2023-04-06T01:49:08;4.90;;;4.37;;
38023;SDS011;23834;48.080;11.682;2023-04-06T01:51:33;3.97;;;3.67;;
38023;SDS011;23834;48.080;11.682;2023-04-06T01:53:58;4.27;;;3.90;;
38023;SDS011;23834;48.080;11.682;2023-04-06T01:56:24;5.20;;;4.57;;
38023;SDS011;23834;48.080;11.682;2023-04-06T01:58:49;5.10;;;4.20;;
38023;SDS011;23834;48.080;11.682;2023-04-06T02:01:15;4.30;;;3.90;;
38023;SDS011;23834;48.080;11.682;2023-04-06T02:03:40;4.93;;;4.30;;
38023;SDS011;23834;48.080;11.682;2023-04-06T02:06:05;4.37;;;3.97;;
38023;SDS011;23834;48.080;11.682;2023-04-06T02:08:30;4.23;;;3.83;;
38023;SDS011;23834;48.080;11.682;2023-04-06T02:10:56;4.43;;;3.83;;
38023;SDS011;23834;48.080;11.682;2023-04-06T02:13:21;4.30;;;4.00;;
38023;SDS011;23834;48.080;11.682;2023-04-06T02:15:46;5.00;;;4.10;;
38023;SDS011;23834;48.080;11.682;2023-04-06T02:18:11;4.60;;;3.90;;
38023;SDS011;23834;48.080;11.682;2023-04-06T02:20:37;4.10;;;3.80;;
38023;SDS011;23834;48.080;11.682;2023-04-06T02:23:02;4.53;;;3.70;;
38023;SDS011;23834;48.080;11.682;2023-04-06T02:25:27;4.57;;;4.17;;
38023;SDS011;23834;48.080;11.682;2023-04-06T02:27:53;4.37;;;3.97;;
38023;SDS011;23834;48.080;11.682;2023-04-06T02:30:18;4.40;;;3.77;;
38023;SDS011;23834;48.080;11.682;2023-04-06T02:32:46;4.07;;;3.67;;
38023;SDS011;23834;48.080;11.682;2023-04-06T02:35:11;4.27;;;3.87;;
38023;SDS011;23834;48.080;11.682;2023-04-06T02:37:36;4.13;;;3.80;;
38023;SDS011;23834;48.080;11.682;2023-04-06T02:40:02;4.67;;;4.27;;
38023;SDS011;23834;48.080;11.682;2023-04-06T02:42:27;4.60;;;4.20;;
38023;SDS011;23834;48.080;11.682;2023-04-06T02:44:52;4.10;;;3.80;;
38023;SDS011;23834;48.080;11.682;2023-04-06T02:47:17;4.63;;;4.23;;
38023;SDS011;23834;48.080;11.682;2023-04-06T02:49:43;4.60;;;3.90;;
38023;SDS011;23834;48.080;11.682;2023-04-06T02:52:08;3.70;;;3.40;;
38023;SDS011;23834;48.080;11.682;2023-04-06T02:54:33;4.13;;;3.80;;
38023;SDS011;23834;48.080;11.682;2023-04-06T02:56:58;3.97;;;3.67;;
38023;SDS011;23834;48.080;11.682;2023-04-06T02:59:23;4.67;;;4.27;;
38023;SDS011;23834;48.080;11.682;2023-04-06T03:01:49;4.40;;;4.10;;
38023;SDS011;23834;48.080;11.682;2023-04-06T03:04:15;3.93;;;3.63;;
38023;SDS011;23834;48.080;11.682;2023-04-06T03:06:40;3.90;;;3.60;;
38023;SDS011;23834;48.080;11.682;2023-04-06T03:09:06;4.27;;;3.93;;
38023;SDS011;23834;48.080;11.682;2023-04-06T03:11:31;4.17;;;3.80;;
38023;SDS011;23834;48.080;11.682;2023-04-06T03:13:56;4.20;;;3.60;;
38023;SDS011;23834;48.080;11.682;2023-04-06T03:16:21;4.20;;;3.80;;
38023;SDS011;23834;48.080;11.682;2023-04-06T03:18:46;3.87;;;3.57;;
38023;SDS011;23834;48.080;11.682;2023-04-06T03:21:12;4.50;;;4.07;;
38023;SDS011;23834;48.080;11.682;2023-04-06T03:23:37;4.83;;;4.17;;
38023;SDS011;23834;48.080;11.682;2023-04-06T03:26:03;4.10;;;3.80;;
38023;SDS011;23834;48.080;11.682;2023-04-06T03:28:28;4.20;;;3.80;;
38023;SDS011;23834;48.080;11.682;2023-04-06T03:30:54;4.00;;;3.60;;
38023;SDS011;23834;48.080;11.682;2023-04-06T03:33:19;4.30;;;3.90;;
38023;SDS011;23834;48.080;11.682;2023-04-06T03:35:44;4.00;;;3.70;;
38023;SDS011;23834;48.080;11.682;2023-04-06T03:38:09;4.20;;;3.53;;
38023;SDS011;23834;48.080;11.682;2023-04-06T03:40:35;4.00;;;3.70;;
38023;SDS011;23834;48.080;11.682;2023-04-06T03:43:00;4.57;;;4.17;;
38023;SDS011;23834;48.080;11.682;2023-04-06T03:45:25;3.33;;;3.03;;
38023;SDS011;23834;48.080;11.682;2023-04-06T03:47:50;4.30;;;4.00;;
38023;SDS011;23834;48.080;11.682;2023-04-06T03:50:16;4.20;;;3.90;;
38023;SDS011;23834;48.080;11.682;2023-04-06T03:52:41;4.30;;;3.90;;
38023;SDS011;23834;48.080;11.682;2023-04-06T03:55:06;3.53;;;3.23;;
38023;SDS011;23834;48.080;11.682;2023-04-06T03:57:32;4.00;;;3.60;;
38023;SDS011;23834;48.080;11.682;2023-04-06T03:59:57;4.23;;;3.90;;
38023;SDS011;23834;48.080;11.682;2023-04-06T04:02:22;4.50;;;4.10;;
38023;SDS011;23834;48.080;11.682;2023-04-06T04:04:47;3.73;;;3.40;;
38023;SDS011;23834;48.080;11.682;2023-04-06T04:07:13;3.77;;;3.47;;
38023;SDS011;23834;48.080;11.682;2023-04-06T04:09:38;4.17;;;3.77;;
38023;SDS011;23834;48.080;11.682;2023-04-06T04:12:03;4.20;;;3.80;;
38023;SDS011;23834;48.080;11.682;2023-04-06T04:14:28;3.70;;;3.40;;
38023;SDS011;23834;48.080;11.682;2023-04-06T04:16:54;3.90;;;3.60;;
38023;SDS011;23834;48.080;11.682;2023-04-06T04:19:19;3.57;;;3.37;;
38023;SDS011;23834;48.080;11.682;2023-04-06T04:21:45;3.30;;;3.10;;
38023;SDS011;23834;48.080;11.682;2023-04-06T04:24:10;4.13;;;3.83;;
38023;SDS011;23834;48.080;11.682;2023-04-06T04:26:36;3.60;;;3.30;;
38023;SDS011;23834;48.080;11.682;2023-04-06T04:29:01;4.03;;;3.73;;
38023;SDS011;23834;48.080;11.682;2023-04-06T04:31:26;4.20;;;3.70;;
38023;SDS011;23834;48.080;11.682;2023-04-06T04:33:51;4.17;;;3.87;;
38023;SDS011;23834;48.080;11.682;2023-04-06T04:36:16;3.80;;;3.50;;
38023;SDS011;23834;48.080;11.682;2023-04-06T04:38:42;3.90;;;3.57;;
38023;SDS011;23834;48.080;11.682;2023-04-06T04:41:07;4.20;;;3.83;;
38023;SDS011;23834;48.080;11.682;2023-04-06T04:43:32;3.70;;;3.50;;
38023;SDS011;23834;48.080;11.682;2023-04-06T04:45:57;3.60;;;3.30;;
38023;SDS011;23834;48.080;11.682;2023-04-06T04:48:24;4.27;;;3.60;;
38023;SDS011;23834;48.080;11.682;2023-04-06T04:50:49;4.20;;;3.80;;
38023;SDS011;23834;48.080;11.682;2023-04-06T04:53:14;3.53;;;3.23;;
38023;SDS011;23834;48.080;11.682;2023-04-06T04:55:40;4.10;;;3.80;;
38023;SDS011;23834;48.080;11.682;2023-04-06T04:58:05;4.20;;;3.90;;
38023;SDS011;23834;48.080;11.682;2023-04-06T05:00:30;4.23;;;3.60;;
38023;SDS011;23834;48.080;11.682;2023-04-06T05:02:56;4.00;;;3.70;;
38023;SDS011;23834;48.080;11.682;2023-04-06T05:05:21;4.67;;;4.27;;
38023;SDS011;23834;48.080;11.682;2023-04-06T05:07:47;4.77;;;3.50;;
38023;SDS011;23834;48.080;11.682;2023-04-06T05:10:12;3.77;;;3.47;;
38023;SDS011;23834;48.080;11.682;2023-04-06T05:12:37;3.87;;;3.57;;
38023;SDS011;23834;48.080;11.682;2023-04-06T05:15:03;4.27;;;3.83;;
38023;SDS011;23834;48.080;11.682;2023-04-06T05:17:28;4.43;;;4.00;;
38023;SDS011;23834;48.080;11.682;2023-04-06T05:19:53;3.93;;;3.60;;
38023;SDS011;23834;48.080;11.682;2023-04-06T05:22:19;4.20;;;3.90;;
38023;SDS011;23834;48.080;11.682;2023-04-06T05:24:45;4.60;;;4.20;;
38023;SDS011;23834;48.080;11.682;2023-04-06T05:27:10;4.27;;;3.37;;
38023;SDS011;23834;48.080;11.682;2023-04-06T05:29:36;4.50;;;4.10;;
38023;SDS011;23834;48.080;11.682;2023-04-06T05:32:01;4.63;;;4.23;;
38023;SDS011;23834;48.080;11.682;2023-04-06T05:34:26;5.87;;;4.17;;
38023;SDS011;23834;48.080;11.682;2023-04-06T05:36:51;4.80;;;4.50;;
38023;SDS011;23834;48.080;11.682;2023-04-06T05:39:17;4.30;;;4.00;;
38023;SDS011;23834;48.080;11.682;2023-04-06T05:41:42;4.87;;;4.37;;
38023;SDS011;23834;48.080;11.682;2023-04-06T05:44:07;4.80;;;4.40;;
38023;SDS011;23834;48.080;11.682;2023-04-06T05:46:33;4.40;;;4.00;;
38023;SDS011;23834;48.080;11.682;2023-04-06T05:48:58;4.00;;;3.70;;
38023;SDS011;23834;48.080;11.682;2023-04-06T05:51:23;4.73;;;4.37;;
38023;SDS011;23834;48.080;11.682;2023-04-06T05:53:48;4.17;;;3.87;;
38023;SDS011;23834;48.080;11.682;2023-04-06T05:56:14;4.43;;;4.03;;
38023;SDS011;23834;48.080;11.682;2023-04-06T05:58:39;4.03;;;3.63;;
38023;SDS011;23834;48.080;11.682;2023-04-06T06:01:04;4.53;;;4.20;;
38023;SDS011;23834;48.080;11.682;2023-04-06T06:03:30;4.20;;;3.90;;
38023;SDS011;23834;48.080;11.682;2023-04-06T06:06:04;3.90;;;3.60;;
38023;SDS011;23834;48.080;11.682;2023-04-06T06:08:30;4.97;;;4.57;;
38023;SDS011;23834;48.080;11.682;2023-04-06T06:10:55;4.37;;;4.07;;
38023;SDS011;23834;48.080;11.682;2023-04-06T06:13:21;4.03;;;3.73;;
38023;SDS011;23834;48.080;11.682;2023-04-06T06:15:47;4.03;;;3.73;;
38023;SDS011;23834;48.080;11.682;2023-04-06T06:18:12;4.20;;;3.80;;
38023;SDS011;23834;48.080;11.682;2023-04-06T06:20:37;3.80;;;3.43;;
38023;SDS011;23834;48.080;11.682;2023-04-06T06:23:02;4.20;;;3.90;;
38023;SDS011;23834;48.080;11.682;2023-04-06T06:25:28;4.57;;;4.10;;
38023;SDS011;23834;48.080;11.682;2023-04-06T06:27:55;4.20;;;3.80;;
38023;SDS011;23834;48.080;11.682;2023-04-06T06:30:21;4.57;;;4.17;;
38023;SDS011;23834;48.080;11.682;2023-04-06T06:32:46;4.47;;;4.07;;
38023;SDS011;23834;48.080;11.682;2023-04-06T06:35:11;4.00;;;3.67;;
38023;SDS011;23834;48.080;11.682;2023-04-06T06:37:37;3.87;;;3.57;;
38023;SDS011;23834;48.080;11.682;2023-04-06T06:40:02;5.43;;;4.20;;
38023;SDS011;23834;48.080;11.682;2023-04-06T06:42:27;4.00;;;3.60;;
38023;SDS011;23834;48.080;11.682;2023-04-06T06:44:53;4.63;;;4.30;;
38023;SDS011;23834;48.080;11.682;2023-04-06T06:47:19;4.00;;;3.60;;
38023;SDS011;23834;48.080;11.682;2023-04-06T06:49:44;4.53;;;4.13;;
38023;SDS011;23834;48.080;11.682;2023-04-06T06:52:10;4.10;;;3.80;;
38023;SDS011;23834;48.080;11.682;2023-04-06T06:54:35;3.87;;;3.57;;
38023;SDS011;23834;48.080;11.682;2023-04-06T06:57:00;4.07;;;3.77;;
38023;SDS011;23834;48.080;11.682;2023-04-06T06:59:26;4.40;;;4.00;;
38023;SDS011;23834;48.080;11.682;2023-04-06T07:01:51;4.10;;;3.80;;
38023;SDS011;23834;48.080;11.682;2023-04-06T07:04:16;4.77;;;3.80;;
38023;SDS011;23834;48.080;11.682;2023-04-06T07:06:42;4.50;;;4.10;;
38023;SDS011;23834;48.080;11.682;2023-04-06T07:09:07;5.07;;;3.80;;
38023;SDS011;23834;48.080;11.682;2023-04-06T07:11:32;4.00;;;3.70;;
38023;SDS011;23834;48.080;11.682;2023-04-06T07:13:57;4.37;;;3.97;;
38023;SDS011;23834;48.080;11.682;2023-04-06T07:16:23;3.43;;;3.23;;
38023;SDS011;23834;48.080;11.682;2023-04-06T07:18:48;3.97;;;3.67;;
38023;SDS011;23834;48.080;11.682;2023-04-06T07:21:13;3.67;;;3.37;;
38023;SDS011;23834;48.080;11.682;2023-04-06T07:23:38;4.20;;;3.80;;
38023;SDS011;23834;48.080;11.682;2023-04-06T07:26:04;3.90;;;3.50;;
38023;SDS011;23834;48.080;11.682;2023-04-06T07:28:29;4.20;;;3.80;;
38023;SDS011;23834;48.080;11.682;2023-04-06T07:30:54;3.87;;;3.47;;
38023;SDS011;23834;48.080;11.682;2023-04-06T07:33:20;3.77;;;3.47;;
38023;SDS011;23834;48.080;11.682;2023-04-06T07:35:45;3.60;;;3.30;;
38023;SDS011;23834;48.080;11.682;2023-04-06T07:38:10;3.13;;;2.93;;
38023;SDS011;23834;48.080;11.682;2023-04-06T07:40:36;3.47;;;3.17;;
38023;SDS011;23834;48.080;11.682;2023-04-06T07:43:01;3.50;;;3.20;;
38023;SDS011;23834;48.080;11.682;2023-04-06T07:45:27;3.63;;;3.33;;
38023;SDS011;23834;48.080;11.682;2023-04-06T07:47:52;3.90;;;3.60;;
38023;SDS011;23834;48.080;11.682;2023-04-06T07:50:17;3.57;;;3.23;;
38023;SDS011;23834;48.080;11.682;2023-04-06T07:52:42;3.53;;;3.23;;
38023;SDS011;23834;48.080;11.682;2023-04-06T07:55:08;3.40;;;3.10;;
38023;SDS011;23834;48.080;11.682;2023-04-06T07:57:33;3.70;;;3.10;;
38023;SDS011;23834;48.080;11.682;2023-04-06T07:59:58;3.70;;;3.40;;
38023;SDS011;23834;48.080;11.682;2023-04-06T08:02:23;3.87;;;3.57;;
38023;SDS011;23834;48.080;11.682;2023-04-06T08:04:49;3.70;;;3.40;;
38023;SDS011;23834;48.080;11.682;2023-04-06T08:07:14;5.00;;;3.83;;
38023;SDS011;23834;48.080;11.682;2023-04-06T08:09:39;4.20;;;3.80;;
38023;SDS011;23834;48.080;11.682;2023-04-06T08:12:05;6.10;;;3.47;;
38023;SDS011;23834;48.080;11.682;2023-04-06T08:14:30;4.37;;;3.93;;
38023;SDS011;23834;48.080;11.682;2023-04-06T08:16:55;3.63;;;3.30;;
38023;SDS011;23834;48.080;11.682;2023-04-06T08:19:22;4.33;;;3.67;;
38023;SDS011;23834;48.080;11.682;2023-04-06T08:21:47;3.90;;;2.90;;
38023;SDS011;23834;48.080;11.682;2023-04-06T08:24:12;3.80;;;3.50;;
38023;SDS011;23834;48.080;11.682;2023-04-06T08:26:38;4.13;;;2.83;;
38023;SDS011;23834;48.080;11.682;2023-04-06T08:29:03;3.57;;;3.27;;
38023;SDS011;23834;48.080;11.682;2023-04-06T08:31:29;3.27;;;2.97;;
38023;SDS011;23834;48.080;11.682;2023-04-06T08:33:54;3.10;;;2.73;;
38023;SDS011;23834;48.080;11.682;2023-04-06T08:36:19;3.07;;;2.87;;
38023;SDS011;23834;48.080;11.682;2023-04-06T08:38:48;4.20;;;3.20;;
38023;SDS011;23834;48.080;11.682;2023-04-06T08:41:14;2.60;;;2.40;;
38023;SDS011;23834;48.080;11.682;2023-04-06T08:46:07;2.87;;;2.77;;
38023;SDS011;23834;48.080;11.682;2023-04-06T08:48:33;3.30;;;3.10;;
38023;SDS011;23834;48.080;11.682;2023-04-06T08:50:58;3.17;;;2.97;;
38023;SDS011;23834;48.080;11.682;2023-04-06T08:53:24;3.23;;;3.03;;
38023;SDS011;23834;48.080;11.682;2023-04-06T08:55:49;3.37;;;3.07;;
38023;SDS011;23834;48.080;11.682;2023-04-06T08:58:16;3.07;;;2.77;;
38023;SDS011;23834;48.080;11.682;2023-04-06T09:00:41;2.90;;;2.70;;
38023;SDS011;23834;48.080;11.682;2023-04-06T09:03:06;3.20;;;2.97;;
38023;SDS011;23834;48.080;11.682;2023-04-06T09:05:32;3.00;;;2.80;;
38023;SDS011;23834;48.080;11.682;2023-04-06T09:07:57;3.87;;;3.47;;
38023;SDS011;23834;48.080;11.682;2023-04-06T09:10:22;3.03;;;2.83;;
38023;SDS011;23834;48.080;11.682;2023-04-06T09:12:50;2.97;;;2.73;;
38023;SDS011;23834;48.080;11.682;2023-04-06T09:15:19;3.10;;;2.87;;
38023;SDS011;23834;48.080;11.682;2023-04-06T09:17:44;3.47;;;3.17;;
38023;SDS011;23834;48.080;11.682;2023-04-06T09:20:11;2.90;;;2.70;;
38023;SDS011;23834;48.080;11.682;2023-04-06T09:22:36;3.37;;;2.90;;
38023;SDS011;23834;48.080;11.682;2023-04-06T09:25:02;3.23;;;2.80;;
38023;SDS011;23834;48.080;11.682;2023-04-06T09:27:31;2.90;;;2.67;;
38023;SDS011;23834;48.080;11.682;2023-04-06T09:30:03;3.00;;;2.80;;
38023;SDS011;23834;48.080;11.682;2023-04-06T09:32:28;2.83;;;2.63;;
38023;SDS011;23834;48.080;11.682;2023-04-06T09:34:53;3.43;;;2.80;;
38023;SDS011;23834;48.080;11.682;2023-04-06T09:37:19;2.90;;;2.70;;
38023;SDS011;23834;48.080;11.682;2023-04-06T09:39:45;3.70;;;3.00;;
38023;SDS011;23834;48.080;11.682;2023-04-06T09:42:11;2.63;;;2.43;;
38023;SDS011;23834;48.080;11.682;2023-04-06T09:44:37;2.60;;;2.40;;
38023;SDS011;23834;48.080;11.682;2023-04-06T09:47:03;3.37;;;3.03;;
38023;SDS011;23834;48.080;11.682;2023-04-06T09:49:31;2.97;;;2.77;;
38023;SDS011;23834;48.080;11.682;2023-04-06T09:51:58;3.23;;;2.90;;
38023;SDS011;23834;48.080;11.682;2023-04-06T09:54:24;3.13;;;2.80;;
38023;SDS011;23834;48.080;11.682;2023-04-06T09:56:57;2.77;;;2.57;;
38023;SDS011;23834;48.080;11.682;2023-04-06T10:01:52;2.97;;;2.77;;
38023;SDS011;23834;48.080;11.682;2023-04-06T10:04:24;3.17;;;2.70;;
38023;SDS011;23834;48.080;11.682;2023-04-06T10:06:52;3.60;;;2.67;;
38023;SDS011;23834;48.080;11.682;2023-04-06T10:09:18;3.03;;;2.83;;
38023;SDS011;23834;48.080;11.682;2023-04-06T10:11:43;2.70;;;2.60;;
38023;SDS011;23834;48.080;11.682;2023-04-06T10:14:09;2.73;;;2.53;;
38023;SDS011;23834;48.080;11.682;2023-04-06T10:16:34;2.80;;;2.57;;
38023;SDS011;23834;48.080;11.682;2023-04-06T10:19:11;2.60;;;2.40;;
38023;SDS011;23834;48.080;11.682;2023-04-06T10:21:37;3.00;;;2.80;;
38023;SDS011;23834;48.080;11.682;2023-04-06T10:24:06;3.37;;;3.07;;
38023;SDS011;23834;48.080;11.682;2023-04-06T10:26:32;2.90;;;2.70;;
38023;SDS011;23834;48.080;11.682;2023-04-06T10:29:01;2.73;;;2.53;;
38023;SDS011;23834;48.080;11.682;2023-04-06T10:31:27;2.93;;;2.50;;
38023;SDS011;23834;48.080;11.682;2023-04-06T10:33:54;2.70;;;2.50;;
38023;SDS011;23834;48.080;11.682;2023-04-06T10:36:26;2.70;;;2.50;;
38023;SDS011;23834;48.080;11.682;2023-04-06T10:38:56;3.33;;;3.13;;
38023;SDS011;23834;48.080;11.682;2023-04-06T10:41:22;2.70;;;2.53;;
38023;SDS011;23834;48.080;11.682;2023-04-06T10:43:54;2.70;;;2.50;;
38023;SDS011;23834;48.080;11.682;2023-04-06T10:46:24;2.93;;;2.73;;
38023;SDS011;23834;48.080;11.682;2023-04-06T10:48:49;2.60;;;2.40;;
38023;SDS011;23834;48.080;11.682;2023-04-06T10:51:16;2.30;;;2.20;;
38023;SDS011;23834;48.080;11.682;2023-04-06T10:53:42;2.30;;;2.20;;
38023;SDS011;23834;48.080;11.682;2023-04-06T10:56:11;3.70;;;2.60;;
38023;SDS011;23834;48.080;11.682;2023-04-06T10:58:37;2.80;;;2.60;;
38023;SDS011;23834;48.080;11.682;2023-04-06T11:01:02;2.63;;;2.43;;
38023;SDS011;23834;48.080;11.682;2023-04-06T11:03:27;2.30;;;2.20;;
38023;SDS011;23834;48.080;11.682;2023-04-06T11:05:53;2.90;;;2.50;;
38023;SDS011;23834;48.080;11.682;2023-04-06T11:08:25;2.57;;;2.37;;
38023;SDS011;23834;48.080;11.682;2023-04-06T11:10:50;3.07;;;2.87;;
38023;SDS011;23834;48.080;11.682;2023-04-06T11:13:16;2.70;;;2.50;;
38023;SDS011;23834;48.080;11.682;2023-04-06T11:15:41;2.40;;;2.30;;
38023;SDS011;23834;48.080;11.682;2023-04-06T11:18:06;2.83;;;2.63;;
38023;SDS011;23834;48.080;11.682;2023-04-06T11:20:31;3.00;;;2.70;;
38023;SDS011;23834;48.080;11.682;2023-04-06T11:22:57;2.77;;;2.57;;
38023;SDS011;23834;48.080;11.682;2023-04-06T11:25:24;2.80;;;2.60;;
38023;SDS011;23834;48.080;11.682;2023-04-06T11:27:49;2.30;;;2.20;;
38023;SDS011;23834;48.080;11.682;2023-04-06T11:30:15;2.80;;;2.60;;
38023;SDS011;23834;48.080;11.682;2023-04-06T11:32:44;2.73;;;2.53;;
38023;SDS011;23834;48.080;11.682;2023-04-06T11:35:19;2.73;;;2.53;;
38023;SDS011;23834;48.080;11.682;2023-04-06T11:37:45;2.50;;;2.30;;
38023;SDS011;23834;48.080;11.682;2023-04-06T11:40:10;2.73;;;2.53;;
38023;SDS011;23834;48.080;11.682;2023-04-06T11:42:36;2.70;;;2.50;;
38023;SDS011;23834;48.080;11.682;2023-04-06T11:45:01;2.87;;;2.67;;
38023;SDS011;23834;48.080;11.682;2023-04-06T11:47:27;2.90;;;2.67;;
38023;SDS011;23834;48.080;11.682;2023-04-06T11:49:53;2.53;;;2.43;;
38023;SDS011;23834;48.080;11.682;2023-04-06T11:52:19;3.00;;;2.43;;
38023;SDS011;23834;48.080;11.682;2023-04-06T11:54:46;2.80;;;2.60;;
38023;SDS011;23834;48.080;11.682;2023-04-06T11:57:11;2.80;;;2.60;;
38023;SDS011;23834;48.080;11.682;2023-04-06T11:59:37;2.70;;;2.40;;
38023;SDS011;23834;48.080;11.682;2023-04-06T12:02:02;2.27;;;2.17;;
38023;SDS011;23834;48.080;11.682;2023-04-06T12:04:28;3.57;;;2.30;;
38023;SDS011;23834;48.080;11.682;2023-04-06T12:06:53;2.90;;;2.70;;
38023;SDS011;23834;48.080;11.682;2023-04-06T12:09:18;2.87;;;2.67;;
38023;SDS011;23834;48.080;11.682;2023-04-06T12:11:43;2.80;;;2.60;;
38023;SDS011;23834;48.080;11.682;2023-04-06T12:14:09;2.80;;;2.60;;
38023;SDS011;23834;48.080;11.682;2023-04-06T12:16:34;2.47;;;2.27;;
38023;SDS011;23834;48.080;11.682;2023-04-06T12:19:00;3.43;;;2.20;;
38023;SDS011;23834;48.080;11.682;2023-04-06T12:21:26;2.10;;;2.00;;
38023;SDS011;23834;48.080;11.682;2023-04-06T12:23:52;3.07;;;2.80;;
38023;SDS011;23834;48.080;11.682;2023-04-06T12:26:17;2.80;;;2.60;;
38023;SDS011;23834;48.080;11.682;2023-04-06T12:28:42;2.60;;;2.40;;
38023;SDS011;23834;48.080;11.682;2023-04-06T12:31:14;2.40;;;2.20;;
38023;SDS011;23834;48.080;11.682;2023-04-06T12:33:39;2.47;;;2.27;;
38023;SDS011;23834;48.080;11.682;2023-04-06T12:36:05;2.47;;;2.27;;
38023;SDS011;23834;48.080;11.682;2023-04-06T12:38:36;2.20;;;2.10;;
38023;SDS011;23834;48.080;11.682;2023-04-06T12:41:03;2.80;;;2.47;;
38023;SDS011;23834;48.080;11.682;2023-04-06T12:43:28;2.50;;;2.30;;
38023;SDS011;23834;48.080;11.682;2023-04-06T12:45:53;2.10;;;2.00;;
38023;SDS011;23834;48.080;11.682;2023-04-06T12:48:19;3.00;;;2.40;;
38023;SDS011;23834;48.080;11.682;2023-04-06T12:50:44;2.07;;;1.97;;
38023;SDS011;23834;48.080;11.682;2023-04-06T12:53:10;2.50;;;2.33;;
38023;SDS011;23834;48.080;11.682;2023-04-06T12:55:35;2.30;;;2.20;;
38023;SDS011;23834;48.080;11.682;2023-04-06T12:58:01;3.10;;;2.30;;
38023;SDS011;23834;48.080;11.682;2023-04-06T13:00:26;2.30;;;2.20;;
38023;SDS011;23834;48.080;11.682;2023-04-06T13:02:51;2.50;;;2.30;;
38023;SDS011;23834;48.080;11.682;2023-04-06T13:05:17;2.50;;;2.30;;
38023;SDS011;23834;48.080;11.682;2023-04-06T13:07:43;2.50;;;2.30;;
38023;SDS011;23834;48.080;11.682;2023-04-06T13:10:09;2.83;;;2.63;;
38023;SDS011;23834;48.080;11.682;2023-04-06T13:12:34;2.30;;;2.20;;
38023;SDS011;23834;48.080;11.682;2023-04-06T13:14:59;2.53;;;2.30;;
38023;SDS011;23834;48.080;11.682;2023-04-06T13:17:26;1.87;;;1.77;;
38023;SDS011;23834;48.080;11.682;2023-04-06T13:19:51;2.37;;;2.27;;
38023;SDS011;23834;48.080;11.682;2023-04-06T13:22:17;2.37;;;2.27;;
38023;SDS011;23834;48.080;11.682;2023-04-06T13:24:42;2.50;;;2.30;;
38023;SDS011;23834;48.080;11.682;2023-04-06T13:27:07;2.50;;;2.30;;
38023;SDS011;23834;48.080;11.682;2023-04-06T13:29:33;2.73;;;1.90;;
38023;SDS011;23834;48.080;11.682;2023-04-06T13:31:59;2.37;;;2.17;;
38023;SDS011;23834;48.080;11.682;2023-04-06T13:34:24;3.07;;;2.23;;
38023;SDS011;23834;48.080;11.682;2023-04-06T13:36:49;2.40;;;2.20;;
38023;SDS011;23834;48.080;11.682;2023-04-06T13:39:15;2.40;;;2.20;;
38023;SDS011;23834;48.080;11.682;2023-04-06T13:41:40;1.80;;;1.70;;
38023;SDS011;23834;48.080;11.682;2023-04-06T13:44:06;1.90;;;1.80;;
38023;SDS011;23834;48.080;11.682;2023-04-06T13:46:31;2.73;;;2.53;;
38023;SDS011;23834;48.080;11.682;2023-04-06T13:48:57;2.20;;;2.10;;
38023;SDS011;23834;48.080;11.682;2023-04-06T13:51:22;2.13;;;2.03;;
38023;SDS011;23834;48.080;11.682;2023-04-06T13:53:47;2.37;;;2.20;;
38023;SDS011;23834;48.080;11.682;2023-04-06T13:56:15;2.10;;;2.00;;
38023;SDS011;23834;48.080;11.682;2023-04-06T13:58:40;2.10;;;2.00;;
38023;SDS011;23834;48.080;11.682;2023-04-06T14:01:06;2.20;;;2.10;;
38023;SDS011;23834;48.080;11.682;2023-04-06T14:03:32;2.50;;;1.93;;
38023;SDS011;23834;48.080;11.682;2023-04-06T14:05:57;2.23;;;2.10;;
38023;SDS011;23834;48.080;11.682;2023-04-06T14:08:22;2.10;;;1.80;;
38023;SDS011;23834;48.080;11.682;2023-04-06T14:10:47;2.33;;;2.00;;
38023;SDS011;23834;48.080;11.682;2023-04-06T14:13:13;2.07;;;1.97;;
38023;SDS011;23834;48.080;11.682;2023-04-06T14:15:38;2.00;;;1.90;;
38023;SDS011;23834;48.080;11.682;2023-04-06T14:18:03;1.90;;;1.80;;
38023;SDS011;23834;48.080;11.682;2023-04-06T14:20:30;1.93;;;1.73;;
38023;SDS011;23834;48.080;11.682;2023-04-06T14:22:56;2.10;;;2.00;;
38023;SDS011;23834;48.080;11.682;2023-04-06T14:25:21;2.30;;;2.10;;
38023;SDS011;23834;48.080;11.682;2023-04-06T14:27:46;2.03;;;1.90;;